Terminal Aerodrome Forecast
Issued by NWS Melbourne, FL

Home | Current Version | Previous Version | Text Only | Print | Product List | Glossary On
Versions: 1 2 3 4 5 6 7 8 9 10
000
FTUS42 KMLB 281400 AAB
TAFDAB
TAF AMD
KDAB 281403Z 2814/2912 00000KT 2SM BR BKN003
     FM281500 22004KT P6SM BKN012
     FM281700 21006KT P6SM BKN035
     FM290000 19003KT P6SM BKN040
     FM290700 00000KT 1SM BR OVC004
      TEMPO 2908/2912 1/2SM FG VV002=

USA.gov is the U.S. government's official web portal to all federal, state and local government web resources and services.